aviador You're here:

LCPH Decoded Metar

PAPHOS in CYPRUS
Report Time2018-02-21 04:30:00
UTC Time2018-02-21 04:48:44
Flight Rules vfr VFR
Wind020° at 07 kt
W.Decomp.*RWY 29: 0.5 kt HW 7.0 kt RCW
W.Rank020° ranks 1
Current wind is above 020° avg. (5.8)
Visibility9999 m
Phenomena:N/A
Clouds:N/A
Expected CloudBase > 800 ft AGL from Temp-Dew spread
CeilingNone
Temp10°C (ISA -5)
Dew Point08°C (88% RH)
AAT7.0°C
QNH1010 hPa
Density Alt-318 ft
Elevation26 ft
Report Wrong Elevation
Raw Report
LCPH 210430Z 02007KT CAVOK 10/08 Q1010=

Extra information for LCPH:More info

Metar Taf Metar & Taf Last 4 Metars F.Rules Stats Wind Profile Meteogram Temp Stats Airport Information Weather charts Add Link Nearby VenuesMetar ALERT Operation Metar Decoded Social comments